Time;durP1;ratioP1;P1;durP2;ratioP2;P2;SDS_P1;SDS_P2;PMS_P1;PMS_P2;Temp;Humidity;BMP_temperature;BMP_pressure;BME280_temperature;BME280_humidity;BME280_pressure;Samples;Min_cycle;Max_cycle;Signal;HPM_P1;HPM_P2
2022/11/25 00:00:19;;;;;;;18.02;9.63;;;;;;;-0.80;94.18;96077.78;2098706;28;20059;-61
2022/11/25 00:01:21;;;;;;;16.48;9.50;;;;;;;-0.70;94.75;96074.34;2099329;28;20056;-61
2022/11/25 00:02:22;;;;;;;18.90;8.98;;;;;;;-0.79;95.12;96074.38;2098601;28;20048;-61
2022/11/25 00:03:23;;;;;;;14.77;8.30;;;;;;;-0.85;94.64;96082.03;2099200;28;20044;-61
2022/11/25 00:04:24;;;;;;;16.80;8.15;;;;;;;-0.87;95.24;96076.09;2099167;28;20045;-61
2022/11/25 00:05:27;;;;;;;17.60;8.98;;;;;;;-0.85;94.70;96076.94;2099264;28;20060;-61
2022/11/25 00:06:32;;;;;;;14.30;7.97;;;;;;;-0.83;94.47;96076.91;2099015;28;20407;-61
2022/11/25 00:07:34;;;;;;;16.77;8.82;;;;;;;-0.85;94.75;96074.41;2099247;28;20059;-61
2022/11/25 00:08:36;;;;;;;15.05;8.50;;;;;;;-0.89;94.17;96070.13;2098549;28;20404;-61
2022/11/25 00:09:37;;;;;;;16.38;8.52;;;;;;;-0.84;94.90;96078.63;2099366;28;20051;-61
2022/11/25 00:10:39;;;;;;;15.93;9.00;;;;;;;-0.87;94.63;96076.09;2099403;28;20052;-61
2022/11/25 00:11:40;;;;;;;17.52;9.35;;;;;;;-0.92;94.57;96077.78;2099377;28;20484;-54
2022/11/25 00:12:41;;;;;;;17.20;10.27;;;;;;;-0.95;95.11;96077.81;2098670;28;20067;-55
2022/11/25 00:13:43;;;;;;;15.52;8.93;;;;;;;-0.97;94.87;96076.94;2099348;28;20044;-54
2022/11/25 00:14:44;;;;;;;19.88;10.25;;;;;;;-1.03;93.89;96065.06;2099303;28;20053;-54
2022/11/25 00:15:45;;;;;;;15.68;9.68;;;;;;;-1.06;94.07;96074.41;2099104;28;20044;-55
2022/11/25 00:16:46;;;;;;;15.10;9.25;;;;;;;-1.10;94.35;96068.44;2099314;28;20052;-55
2022/11/25 00:17:47;;;;;;;16.67;10.00;;;;;;;-1.11;93.89;96071.88;2099312;28;20060;-55
2022/11/25 00:18:50;;;;;;;13.75;8.73;;;;;;;-1.22;94.26;96055.75;2099168;28;20055;-55
2022/11/25 00:19:51;;;;;;;16.42;8.32;;;;;;;-1.11;94.08;96066.75;2098586;28;20080;-54
2022/11/25 00:20:52;;;;;;;16.60;9.45;;;;;;;-1.13;94.25;96061.66;2098544;28;20399;-53
2022/11/25 00:21:53;;;;;;;16.08;7.78;;;;;;;-1.15;93.73;96071.03;2099344;28;20032;-56
2022/11/25 00:22:54;;;;;;;16.35;8.27;;;;;;;-1.14;94.09;96072.72;2098514;28;20055;-53
2022/11/25 00:23:56;;;;;;;17.25;8.27;;;;;;;-1.07;94.87;96073.53;2099076;28;20400;-55
2022/11/25 00:24:58;;;;;;;15.52;8.45;;;;;;;-1.10;95.00;96071.00;2098519;28;20044;-56
2022/11/25 00:26:12;;;;;;;16.50;8.15;;;;;;;-1.15;94.91;96060.84;2098829;28;20055;-55
2022/11/25 00:27:14;;;;;;;14.75;8.10;;;;;;;-1.07;95.32;96077.78;2099073;28;20044;-54
2022/11/25 00:28:16;;;;;;;13.35;8.70;;;;;;;-1.02;95.22;96071.84;2099136;28;20045;-54
2022/11/25 00:29:17;;;;;;;14.73;8.57;;;;;;;-1.10;95.01;96076.09;2099045;28;20425;-55
2022/11/25 00:30:18;;;;;;;16.67;8.95;;;;;;;-1.14;95.37;96076.97;2099079;28;20051;-54
2022/11/25 00:31:21;;;;;;;11.93;7.38;;;;;;;-1.14;94.82;96082.06;2098780;28;20053;-57
2022/11/25 00:32:23;;;;;;;15.32;8.27;;;;;;;-1.13;95.47;96078.66;2097394;28;20052;-58
2022/11/25 00:33:24;;;;;;;13.75;7.88;;;;;;;-1.19;95.45;96068.47;2090350;28;20053;-58
2022/11/25 00:34:25;;;;;;;19.30;8.68;;;;;;;-1.11;95.29;96077.81;2098415;28;20412;-58
2022/11/25 00:35:26;;;;;;;17.65;8.75;;;;;;;-1.16;94.76;96076.97;2099064;28;20052;-57
2022/11/25 00:36:30;;;;;;;15.57;8.80;;;;;;;-1.18;94.70;96073.56;2099036;28;20475;-59
2022/11/25 00:37:31;;;;;;;12.82;8.00;;;;;;;-1.32;94.62;96047.22;2098599;28;20045;-58
2022/11/25 00:38:32;;;;;;;11.98;8.30;;;;;;;-1.21;94.65;96067.63;2098386;28;20060;-58
2022/11/25 00:39:33;;;;;;;12.95;8.18;;;;;;;-1.24;93.94;96065.06;2098998;28;20048;-58
2022/11/25 00:40:34;;;;;;;15.35;7.80;;;;;;;-1.25;94.20;96069.31;2098231;28;20064;-58
2022/11/25 00:44:34;;;;;;;17.23;8.23;;;;;;;-1.24;94.67;96065.91;2097475;28;20423;-58
2022/11/25 00:45:36;;;;;;;12.95;7.47;;;;;;;-1.29;94.95;96059.13;2098228;28;20057;-58
2022/11/25 00:46:37;;;;;;;13.27;7.75;;;;;;;-1.24;94.67;96065.91;2099049;28;20404;-60
2022/11/25 00:47:38;;;;;;;13.25;7.65;;;;;;;-1.26;95.20;96062.50;2099104;28;20043;-60
2022/11/25 00:48:39;;;;;;;12.35;6.40;;;;;;;-1.25;95.52;96060.84;2098904;28;20043;-60
2022/11/25 00:49:41;;;;;;;15.45;8.32;;;;;;;-1.28;94.61;96061.69;2098921;28;20507;-61
2022/11/25 00:50:42;;;;;;;12.98;8.15;;;;;;;-1.47;94.36;96031.94;2098865;28;20053;-60
2022/11/25 00:51:43;;;;;;;11.40;7.40;;;;;;;-1.30;94.40;96057.44;2099254;28;20042;-61
2022/11/25 00:52:44;;;;;;;13.95;7.88;;;;;;;-1.31;94.08;96054.03;2098288;28;20420;-61
2022/11/25 00:53:46;;;;;;;14.27;7.50;;;;;;;-1.33;94.55;96059.13;2090231;28;20056;-61
2022/11/25 00:54:48;;;;;;;18.15;8.02;;;;;;;-1.47;95.12;96037.03;2097868;28;20056;-61
2022/11/25 00:57:09;;;;;;;16.92;8.15;;;;;;;-1.36;95.61;96055.75;2099059;28;20074;-61
2022/11/25 00:58:10;;;;;;;16.60;7.97;;;;;;;-1.39;94.81;96068.44;2098306;28;20071;-61
2022/11/25 00:59:12;;;;;;;16.33;8.15;;;;;;;-1.42;94.57;96061.66;2097405;28;20048;-61
2022/11/25 01:00:14;;;;;;;12.25;7.15;;;;;;;-1.41;94.38;96059.97;2098002;28;20044;-61
2022/11/25 01:01:15;;;;;;;14.23;7.95;;;;;;;-1.43;95.26;96046.38;2098193;28;20048;-61
2022/11/25 01:02:16;;;;;;;16.67;7.70;;;;;;;-1.41;93.94;96053.19;2098150;28;20127;-60
2022/11/25 01:03:18;;;;;;;12.02;7.65;;;;;;;-1.41;94.11;96059.97;2098222;28;20056;-60
2022/11/25 01:04:19;;;;;;;16.13;8.10;;;;;;;-1.42;94.30;96061.66;2098097;28;20067;-60
2022/11/25 01:05:20;;;;;;;13.23;7.95;;;;;;;-1.43;94.45;96054.88;2097011;28;20052;-60
2022/11/25 01:06:21;;;;;;;13.05;8.35;;;;;;;-1.43;94.79;96061.69;2089876;28;20041;-61
2022/11/25 01:07:23;;;;;;;13.52;8.35;;;;;;;-1.43;94.33;96059.13;2097825;28;20064;-60
2022/11/25 01:08:24;;;;;;;13.07;7.65;;;;;;;-1.40;94.52;96064.22;2098556;28;20142;-61
2022/11/25 01:09:26;;;;;;;16.45;8.52;;;;;;;-1.46;94.68;96057.44;2098119;28;20520;-60
2022/11/25 01:10:27;;;;;;;16.95;8.77;;;;;;;-1.48;94.96;96059.13;2098729;28;20048;-60
2022/11/25 01:11:28;;;;;;;16.70;8.85;;;;;;;-1.46;94.53;96066.78;2098921;28;20055;-58
2022/11/25 01:12:29;;;;;;;15.35;8.65;;;;;;;-1.44;94.72;96060.00;2098817;28;20498;-57
2022/11/25 01:13:30;;;;;;;19.20;9.02;;;;;;;-1.47;94.86;96057.41;2098809;28;20040;-58
2022/11/25 01:14:31;;;;;;;14.85;8.30;;;;;;;-1.44;95.21;96060.84;2098609;28;20047;-57
2022/11/25 01:15:35;;;;;;;17.48;9.35;;;;;;;-1.42;94.35;96068.47;2099005;28;20075;-57
2022/11/25 01:16:36;;;;;;;15.45;8.90;;;;;;;-1.43;95.12;96065.06;2098717;28;20059;-53
2022/11/25 01:17:38;;;;;;;17.90;8.75;;;;;;;-1.42;95.01;96065.91;2098722;28;20075;-54
2022/11/25 01:18:39;;;;;;;15.82;9.43;;;;;;;-1.41;94.44;96072.72;2098682;28;20063;-54
2022/11/25 01:19:40;;;;;;;14.25;9.02;;;;;;;-1.38;94.37;96072.72;2098673;28;20044;-54
2022/11/25 01:20:41;;;;;;;18.58;9.60;;;;;;;-1.38;94.36;96065.91;2098777;28;20036;-54
2022/11/25 01:21:43;;;;;;;16.17;8.68;;;;;;;-1.35;95.17;96073.56;2098804;28;20460;-59
2022/11/25 01:22:45;;;;;;;15.40;8.95;;;;;;;-1.30;94.49;96075.28;2098729;28;20051;-60
2022/11/25 01:23:47;;;;;;;15.77;8.70;;;;;;;-1.31;94.99;96069.34;2098577;28;20071;-59
2022/11/25 01:24:48;;;;;;;15.93;10.10;;;;;;;-1.27;94.09;96077.81;2098629;28;20067;-59
2022/11/25 01:25:49;;;;;;;15.88;9.32;;;;;;;-1.24;95.00;96065.06;2097326;28;20048;-59
2022/11/25 01:26:51;;;;;;;17.00;10.20;;;;;;;-1.22;95.13;96079.50;2089996;28;20484;-59
2022/11/25 01:27:52;;;;;;;19.25;9.77;;;;;;;-1.20;94.58;96075.28;2089639;28;20045;-59
2022/11/25 01:29:00;;;;;;;16.13;9.13;;;;;;;-1.17;94.92;96076.97;2089913;28;20036;-59
2022/11/25 01:30:01;;;;;;;16.38;9.60;;;;;;;-1.16;95.16;96076.97;2098137;28;20067;-59
2022/11/25 01:31:04;;;;;;;15.93;9.38;;;;;;;-1.15;94.48;96071.03;2098586;28;20043;-58
2022/11/25 01:32:05;;;;;;;18.38;9.68;;;;;;;-1.12;94.78;96073.56;2097721;28;20400;-58
2022/11/25 01:33:06;;;;;;;18.20;10.02;;;;;;;-1.11;94.35;96079.50;2097791;28;20036;-59
2022/11/25 01:34:13;;;;;;;17.30;9.75;;;;;;;-1.11;94.73;96072.72;2097856;28;20040;-59
2022/11/25 01:35:14;;;;;;;17.30;8.85;;;;;;;-1.24;94.69;96042.97;2097659;28;20055;-58
2022/11/25 01:36:16;;;;;;;14.90;9.30;;;;;;;-1.21;94.84;96047.22;2098068;28;20463;-58
2022/11/25 01:37:17;;;;;;;15.73;9.02;;;;;;;-1.06;94.71;96065.06;2098505;28;20048;-58
2022/11/25 01:38:18;;;;;;;18.13;9.43;;;;;;;-1.03;94.84;96070.16;2097306;28;20134;-58
2022/11/25 01:39:21;;;;;;;14.15;8.27;;;;;;;-1.01;95.35;96068.47;2097940;28;20063;-59
2022/11/25 01:40:22;;;;;;;17.58;8.75;;;;;;;-1.03;95.17;96059.13;2097378;28;20052;-59
2022/11/25 01:41:24;;;;;;;18.67;8.77;;;;;;;-1.04;94.81;96058.28;2097751;28;20495;-61
2022/11/25 01:42:28;;;;;;;12.80;8.48;;;;;;;-1.13;95.25;96043.81;2098541;28;20047;-61
2022/11/25 01:43:29;;;;;;;13.80;8.18;;;;;;;-0.97;94.91;96071.84;2097731;28;20059;-61
2022/11/25 01:44:31;;;;;;;16.27;8.95;;;;;;;-0.98;95.24;96065.91;2097887;28;20056;-60
2022/11/25 01:45:34;;;;;;;16.33;8.30;;;;;;;-0.99;95.02;96071.00;2098054;28;20036;-60
2022/11/25 01:47:11;;;;;;;16.67;9.15;;;;;;;-1.00;94.54;96065.06;2097385;28;20067;-55
2022/11/25 01:48:24;;;;;;;12.18;8.05;;;;;;;-1.05;95.29;96061.66;2097526;28;20449;-55
2022/11/25 01:49:31;;;;;;;13.48;8.70;;;;;;;-0.96;95.49;96064.22;2083353;28;20045;-55
2022/11/25 01:50:32;;;;;;;17.30;9.20;;;;;;;-0.99;95.43;96066.78;2090492;28;20095;-54
2022/11/25 01:51:43;;;;;;;14.48;8.80;;;;;;;-1.01;94.88;96058.28;2096991;28;20522;-54
2022/11/25 01:52:45;;;;;;;15.10;7.25;;;;;;;-1.03;95.22;96067.59;2090841;28;20049;-53
2022/11/25 01:53:46;;;;;;;13.70;7.80;;;;;;;-1.03;95.31;96059.13;2097637;28;20114;-54
2022/11/25 01:54:55;;;;;;;16.73;8.77;;;;;;;-0.99;94.68;96060.78;2097508;28;20067;-54
2022/11/25 01:55:59;;;;;;;14.98;8.10;;;;;;;-1.03;94.87;96052.31;2073645;28;20054;-54
2022/11/25 01:57:04;;;;;;;16.45;8.43;;;;;;;-0.99;95.10;96058.25;2057828;28;20046;-58
2022/11/25 01:58:11;;;;;;;14.00;8.18;;;;;;;-0.97;95.40;96059.09;2066762;28;20375;-58
2022/11/25 01:59:13;;;;;;;14.50;8.23;;;;;;;-0.98;95.20;96063.34;2082730;28;20551;-57
2022/11/25 02:00:14;;;;;;;12.75;7.53;;;;;;;-0.98;95.40;96058.25;2097450;28;20051;-57
2022/11/25 02:01:20;;;;;;;13.27;7.78;;;;;;;-0.95;95.15;96059.97;2098801;28;20504;-59
2022/11/25 02:02:21;;;;;;;13.95;7.57;;;;;;;-0.89;95.12;96062.50;2089049;28;20059;-58
2022/11/25 02:03:25;;;;;;;13.13;7.82;;;;;;;-0.92;94.72;96063.34;2089308;28;20428;-58
2022/11/25 02:04:30;;;;;;;18.83;8.05;;;;;;;-0.92;95.04;96071.00;2081423;28;20116;-61
2022/11/25 02:05:47;;;;;;;17.13;8.10;;;;;;;-0.85;95.57;96066.75;2089746;28;20049;-59
2022/11/25 02:06:52;;;;;;;11.20;6.93;;;;;;;-0.86;95.25;96070.13;2091128;28;20049;-60
2022/11/25 02:07:55;;;;;;;11.63;8.05;;;;;;;-0.87;95.00;96076.09;2089616;28;20041;-59
2022/11/25 02:09:02;;;;;;;14.68;7.80;;;;;;;-0.86;94.64;96066.72;2089822;28;20036;-60
2022/11/25 02:10:06;;;;;;;12.57;7.53;;;;;;;-0.86;95.00;96070.13;2081262;28;20045;-60
2022/11/25 02:11:07;;;;;;;13.57;7.15;;;;;;;-0.87;94.68;96065.88;2081066;28;20065;-60
2022/11/25 02:12:08;;;;;;;10.48;6.50;;;;;;;-0.86;95.57;96062.47;2073405;28;20037;-60
2022/11/25 02:13:10;;;;;;;14.77;7.32;;;;;;;-0.83;95.17;96070.13;2073091;28;20037;-59
2022/11/25 02:14:11;;;;;;;12.18;6.68;;;;;;;-0.81;95.06;96070.97;2089743;28;20384;-59
2022/11/25 02:15:13;;;;;;;13.30;6.97;;;;;;;-0.83;94.72;96061.63;2097731;28;20037;-59
2022/11/25 02:16:14;;;;;;;12.90;7.22;;;;;;;-0.78;94.82;96067.56;2089377;28;20045;-58
2022/11/25 02:17:15;;;;;;;13.27;7.60;;;;;;;-0.76;95.21;96069.25;2089210;28;20052;-58
2022/11/25 02:18:16;;;;;;;9.73;6.53;;;;;;;-0.74;94.81;96067.56;2089273;28;20041;-58
2022/11/25 02:19:31;;;;;;;11.70;6.38;;;;;;;-0.71;95.19;96074.38;2089629;28;20041;-58
2022/11/25 02:20:32;;;;;;;11.52;6.57;;;;;;;-0.70;94.80;96070.94;2082920;28;20505;-57
2022/11/25 02:21:42;;;;;;;13.25;7.18;;;;;;;-0.69;94.86;96070.97;2080963;28;20489;-57
2022/11/25 02:23:10;;;;;;;13.23;6.68;;;;;;;-0.67;94.85;96069.25;2090128;28;20049;-58
2022/11/25 02:24:19;;;;;;;14.73;7.93;;;;;;;-0.75;94.92;96054.81;2092606;28;20045;-57
2022/11/25 02:25:25;;;;;;;12.63;6.45;;;;;;;-0.67;94.93;96069.25;2081664;28;20432;-57
2022/11/25 02:26:26;;;;;;;12.82;7.70;;;;;;;-0.64;94.77;96068.41;2090615;28;20052;-61
2022/11/25 02:27:27;;;;;;;15.63;7.47;;;;;;;-0.76;94.94;96058.22;2081280;28;20451;-60
2022/11/25 02:28:29;;;;;;;10.32;6.97;;;;;;;-0.68;95.30;96072.66;2080728;28;20056;-60
2022/11/25 02:29:31;;;;;;;13.68;7.55;;;;;;;-0.70;95.28;96065.84;2080854;28;20056;-60
2022/11/25 02:30:32;;;;;;;12.50;7.00;;;;;;;-0.67;95.51;96074.38;2064584;28;20050;-60
2022/11/25 02:31:33;;;;;;;9.68;6.28;;;;;;;-0.67;95.36;96066.72;2080416;28;20050;-58
2022/11/25 02:32:35;;;;;;;13.20;6.95;;;;;;;-0.63;94.84;96065.00;2089611;28;20049;-59
2022/11/25 02:33:36;;;;;;;9.68;5.93;;;;;;;-0.69;94.89;96052.25;2088787;28;20060;-59
2022/11/25 02:34:45;;;;;;;11.98;6.70;;;;;;;-0.62;94.65;96069.22;2097586;28;20059;-59
2022/11/25 02:35:53;;;;;;;12.50;5.80;;;;;;;-0.62;94.86;96069.22;2097932;28;20051;-59
2022/11/25 02:36:55;;;;;;;8.93;6.05;;;;;;;-0.64;95.17;96060.75;2090229;28;20041;-60
2022/11/25 02:38:17;;;;;;;12.63;6.10;;;;;;;-0.61;95.44;96063.28;2081614;28;20042;-60
2022/11/25 02:39:19;;;;;;;11.30;6.57;;;;;;;-0.61;95.29;96067.56;2092218;28;20060;-59
2022/11/25 02:40:20;;;;;;;11.88;6.57;;;;;;;-0.63;95.15;96065.00;2096793;28;20049;-60
2022/11/25 02:41:35;;;;;;;13.60;6.97;;;;;;;-0.67;94.87;96066.72;2089444;28;20049;-61
2022/11/25 02:42:39;;;;;;;10.18;5.93;;;;;;;-0.68;94.96;96062.44;2075166;28;20073;-61
2022/11/25 02:43:40;;;;;;;13.23;7.45;;;;;;;-0.66;94.59;96062.44;2058044;28;20046;-61
2022/11/25 02:44:41;;;;;;;13.38;6.93;;;;;;;-0.70;94.50;96061.59;2072656;28;20061;-61
2022/11/25 02:45:54;;;;;;;14.18;6.40;;;;;;;-0.77;94.66;96046.34;2088758;28;20057;-60
2022/11/25 02:46:55;;;;;;;12.48;6.47;;;;;;;-0.65;94.79;96066.69;2082678;28;20045;-61
2022/11/25 02:47:56;;;;;;;10.27;6.43;;;;;;;-0.67;95.15;96063.28;2088776;28;20045;-61
2022/11/25 02:48:58;;;;;;;10.98;6.65;;;;;;;-0.68;94.57;96057.34;2098220;28;20048;-61
2022/11/25 02:49:59;;;;;;;13.43;6.07;;;;;;;-0.69;94.51;96059.91;2096449;28;20048;-61
2022/11/25 02:51:00;;;;;;;10.38;6.00;;;;;;;-0.71;94.79;96062.47;2097523;28;20036;-61
2022/11/25 02:52:01;;;;;;;9.65;6.20;;;;;;;-0.72;95.25;96057.38;2098326;28;20032;-61
2022/11/25 02:53:03;;;;;;;11.48;6.47;;;;;;;-0.74;95.14;96052.28;2096701;28;20040;-60
2022/11/25 02:54:04;;;;;;;8.05;5.72;;;;;;;-0.70;94.63;96053.09;2097178;28;20041;-61
2022/11/25 02:55:05;;;;;;;12.65;6.18;;;;;;;-0.73;94.68;96053.94;2097659;28;20128;-61
2022/11/25 02:56:07;;;;;;;11.00;5.63;;;;;;;-0.81;94.86;96044.63;2089345;28;20066;-61
2022/11/25 02:57:08;;;;;;;10.10;6.18;;;;;;;-0.70;95.59;96053.09;2089193;28;20111;-60
2022/11/25 02:58:10;;;;;;;10.23;6.10;;;;;;;-0.73;95.10;96053.94;2089196;28;20041;-61
2022/11/25 02:59:13;;;;;;;11.68;5.53;;;;;;;-0.75;95.15;96047.16;2096896;28;20048;-61
2022/11/25 03:00:14;;;;;;;12.90;6.07;;;;;;;-0.74;95.23;96051.44;2088417;28;20056;-62
2022/11/25 03:01:16;;;;;;;11.02;5.78;;;;;;;-0.73;94.54;96058.22;2089424;28;20048;-61
2022/11/25 03:02:17;;;;;;;11.60;5.55;;;;;;;-0.73;94.39;96060.75;2097489;28;20134;-61
2022/11/25 03:03:18;;;;;;;11.02;6.00;;;;;;;-0.71;94.41;96064.16;2096460;28;20055;-62
2022/11/25 03:04:21;;;;;;;10.80;5.38;;;;;;;-0.72;94.67;96058.22;2088766;28;20063;-61
2022/11/25 03:05:22;;;;;;;14.68;4.82;;;;;;;-0.72;94.97;96065.03;2097832;28;20468;-61
2022/11/25 03:06:23;;;;;;;12.68;5.95;;;;;;;-0.73;94.97;96059.06;2098132;28;20032;-62
2022/11/25 03:07:25;;;;;;;9.25;5.07;;;;;;;-0.74;94.43;96062.47;2096518;28;20440;-61
2022/11/25 03:08:26;;;;;;;9.23;5.60;;;;;;;-0.76;94.39;96063.31;2089360;28;20045;-62
2022/11/25 03:09:27;;;;;;;10.95;5.38;;;;;;;-0.79;94.46;96058.22;2096624;28;20503;-61
2022/11/25 03:10:29;;;;;;;12.38;5.18;;;;;;;-0.77;94.28;96061.63;2097120;28;20041;-62
2022/11/25 03:12:50;;;;;;;11.77;6.35;;;;;;;-0.78;94.68;96065.00;2090866;28;20508;-61
2022/11/25 03:13:51;;;;;;;9.85;5.38;;;;;;;-0.80;94.28;96070.13;2088519;28;20057;-61
2022/11/25 03:14:52;;;;;;;12.98;5.40;;;;;;;-0.81;94.67;96070.13;2097198;28;20437;-61
2022/11/25 03:15:53;;;;;;;10.70;5.43;;;;;;;-0.81;94.50;96070.13;2096543;28;20041;-61
2022/11/25 03:16:54;;;;;;;8.05;5.20;;;;;;;-0.79;94.63;96074.38;2097280;28;20048;-54
2022/11/25 03:17:56;;;;;;;9.25;5.20;;;;;;;-0.80;94.84;96072.69;2097443;28;20040;-54
2022/11/25 03:18:57;;;;;;;9.95;4.90;;;;;;;-0.84;94.33;96070.97;2090748;28;20039;-55
2022/11/25 03:19:58;;;;;;;10.60;5.45;;;;;;;-0.86;94.51;96067.56;2098741;28;20059;-54
2022/11/25 03:20:59;;;;;;;10.32;5.50;;;;;;;-0.85;95.11;96068.44;2098359;28;20056;-54
2022/11/25 03:22:00;;;;;;;11.75;5.32;;;;;;;-0.89;94.39;96057.38;2099051;28;20044;-54
2022/11/25 03:23:02;;;;;;;8.48;4.63;;;;;;;-0.89;94.34;96060.78;2099257;28;20037;-54
2022/11/25 03:24:03;;;;;;;10.63;5.28;;;;;;;-0.92;94.98;96063.34;2099209;28;20039;-55
2022/11/25 03:25:04;;;;;;;13.05;5.85;;;;;;;-0.85;94.99;96061.66;2099248;28;20055;-54
2022/11/25 03:26:06;;;;;;;9.82;5.80;;;;;;;-0.89;94.85;96059.94;2098007;28;20059;-54
2022/11/25 03:27:07;;;;;;;10.80;5.85;;;;;;;-0.91;94.59;96069.28;2099291;28;20392;-54
2022/11/25 03:28:08;;;;;;;11.85;5.85;;;;;;;-0.97;95.01;96065.03;2090073;28;20040;-54
2022/11/25 03:29:09;;;;;;;14.73;6.18;;;;;;;-1.00;94.95;96054.00;2089725;28;20041;-55
2022/11/25 03:30:16;;;;;;;13.38;5.45;;;;;;;-1.05;94.24;96040.41;2098079;28;20063;-54
2022/11/25 03:31:18;;;;;;;9.27;5.15;;;;;;;-1.01;94.07;96048.06;2091523;28;20423;-61
2022/11/25 03:32:19;;;;;;;10.95;5.10;;;;;;;-0.99;94.38;96046.38;2090368;28;20056;-61
2022/11/25 03:33:20;;;;;;;9.68;5.72;;;;;;;-1.04;94.09;96057.41;2098622;28;20056;-61
2022/11/25 03:34:22;;;;;;;9.00;5.05;;;;;;;-1.31;93.90;96010.72;2099625;28;20052;-61
2022/11/25 03:35:24;;;;;;;11.75;5.60;;;;;;;-1.16;94.19;96038.72;2098893;28;20048;-61
2022/11/25 03:36:25;;;;;;;9.13;5.03;;;;;;;-1.17;94.13;96049.78;2098474;28;20056;-59
2022/11/25 03:37:26;;;;;;;10.05;5.50;;;;;;;-1.18;94.51;96053.16;2098968;28;20515;-59
2022/11/25 03:38:27;;;;;;;12.30;6.00;;;;;;;-1.20;94.49;96054.88;2099150;28;20049;-59
2022/11/25 03:39:28;;;;;;;10.07;5.80;;;;;;;-1.22;94.30;96058.28;2098045;28;20048;-59
2022/11/25 03:40:29;;;;;;;10.68;5.68;;;;;;;-1.29;94.04;96047.22;2098564;28;20052;-59
2022/11/25 03:41:30;;;;;;;9.85;5.10;;;;;;;-1.26;93.91;96054.88;2099052;28;20039;-59
2022/11/25 03:42:32;;;;;;;9.38;6.03;;;;;;;-1.24;93.32;96052.34;2090457;28;20052;-59
2022/11/25 03:43:34;;;;;;;11.05;5.53;;;;;;;-1.23;94.44;96043.81;2090150;28;20052;-59
2022/11/25 03:44:35;;;;;;;9.60;5.30;;;;;;;-1.21;93.49;96055.72;2090587;28;20488;-58
2022/11/25 03:45:36;;;;;;;9.57;6.03;;;;;;;-1.20;93.70;96057.44;2097895;28;20055;-59
2022/11/25 03:46:40;;;;;;;14.20;6.20;;;;;;;-1.33;94.32;96040.44;2098159;28;20048;-59
2022/11/25 03:47:42;;;;;;;9.38;5.70;;;;;;;-1.19;94.24;96068.47;2098628;28;20409;-59
2022/11/25 03:48:43;;;;;;;14.27;6.18;;;;;;;-1.24;94.05;96063.38;2097748;28;20052;-59
2022/11/25 03:49:45;;;;;;;10.23;6.07;;;;;;;-1.23;95.08;96069.31;2090505;28;20048;-59
2022/11/25 03:50:47;;;;;;;7.38;4.80;;;;;;;-1.25;94.45;96064.22;2090263;28;20353;-59
2022/11/25 03:51:48;;;;;;;10.18;5.85;;;;;;;-1.26;94.71;96066.75;2098814;28;20056;-59
2022/11/25 03:52:51;;;;;;;13.38;6.25;;;;;;;-1.27;94.32;96071.00;2098045;28;20055;-59
2022/11/25 03:53:54;;;;;;;11.60;6.20;;;;;;;-1.28;94.24;96069.34;2098152;28;20056;-59
2022/11/25 03:54:55;;;;;;;8.93;5.60;;;;;;;-1.29;94.18;96061.69;2089632;28;20045;-59
2022/11/25 03:55:59;;;;;;;10.57;5.70;;;;;;;-1.31;94.33;96069.34;2090865;28;20033;-59
2022/11/25 03:57:00;;;;;;;11.30;5.72;;;;;;;-1.33;93.86;96061.69;2090725;28;20579;-58
2022/11/25 03:58:03;;;;;;;11.85;6.80;;;;;;;-1.36;94.00;96059.13;2089821;28;20071;-58
2022/11/25 03:59:04;;;;;;;11.88;6.50;;;;;;;-1.39;94.66;96061.69;2089507;28;20519;-57
2022/11/25 04:00:06;;;;;;;12.30;6.35;;;;;;;-1.51;93.93;96031.09;2090742;28;20416;-57
2022/11/25 04:01:18;;;;;;;14.40;6.22;;;;;;;-1.41;94.04;96052.34;2098577;28;20055;-60
2022/11/25 04:02:20;;;;;;;12.10;5.70;;;;;;;-1.42;94.50;96046.38;2098633;28;20052;-60
2022/11/25 04:03:23;;;;;;;10.90;5.90;;;;;;;-1.44;93.88;96047.25;2097884;28;20474;-60
2022/11/25 04:04:24;;;;;;;12.07;6.10;;;;;;;-1.46;94.00;96061.69;2098627;28;20032;-60
2022/11/25 04:05:27;;;;;;;8.95;5.93;;;;;;;-1.46;94.27;96064.22;2097757;28;20051;-60
2022/11/25 04:06:31;;;;;;;11.70;5.35;;;;;;;-1.47;93.77;96060.84;2089876;28;20052;-60
2022/11/25 04:07:33;;;;;;;13.52;5.65;;;;;;;-1.44;94.88;96060.00;2089828;28;20420;-60
2022/11/25 04:08:34;;;;;;;14.27;6.78;;;;;;;-1.47;93.85;96057.41;2098660;28;20052;-61
2022/11/25 04:09:35;;;;;;;10.38;6.22;;;;;;;-1.48;94.16;96051.47;2098597;28;20048;-60
2022/11/25 04:10:39;;;;;;;8.75;5.50;;;;;;;-1.46;93.63;96061.69;2089749;28;20059;-61
2022/11/25 04:13:04;;;;;;;13.70;5.93;;;;;;;-1.44;94.05;96057.44;2092345;28;20052;-60
2022/11/25 04:14:10;;;;;;;10.98;6.28;;;;;;;-1.40;94.25;96054.03;2091034;28;20047;-60
2022/11/25 04:15:12;;;;;;;11.40;5.78;;;;;;;-1.44;94.22;96053.19;2098623;28;20035;-60
2022/11/25 04:16:23;;;;;;;9.25;5.75;;;;;;;-1.41;94.65;96060.81;2097592;28;20496;-58
2022/11/25 04:17:26;;;;;;;12.70;6.10;;;;;;;-1.40;94.45;96062.50;2082666;28;20056;-58
2022/11/25 04:18:27;;;;;;;11.18;6.38;;;;;;;-1.35;94.33;96057.44;2082293;28;20060;-58
2022/11/25 04:19:30;;;;;;;19.48;6.75;;;;;;;-1.37;95.55;96052.31;2089960;28;20060;-58
2022/11/25 04:20:32;;;;;;;12.68;7.13;;;;;;;-1.36;94.35;96054.03;2089336;28;20049;-58
2022/11/25 04:21:37;;;;;;;12.88;5.35;;;;;;;-1.34;95.21;96054.91;2098740;28;20048;-60
2022/11/25 04:22:39;;;;;;;8.48;5.90;;;;;;;-1.29;95.26;96057.41;2090101;28;20432;-60
2022/11/25 04:23:40;;;;;;;11.52;5.95;;;;;;;-1.30;95.13;96052.34;2090240;28;20055;-60
2022/11/25 04:24:45;;;;;;;9.10;5.53;;;;;;;-1.27;95.09;96055.72;2089717;28;20055;-60
2022/11/25 04:25:50;;;;;;;9.48;5.95;;;;;;;-1.26;95.03;96059.97;2090132;28;20467;-61
2022/11/25 04:26:59;;;;;;;9.82;6.35;;;;;;;-1.26;94.64;96056.56;2090557;28;20523;-61
2022/11/25 04:28:01;;;;;;;11.15;6.07;;;;;;;-1.23;94.66;96062.53;2098487;28;20036;-60
2022/11/25 04:29:06;;;;;;;9.45;6.07;;;;;;;-1.21;94.56;96065.06;2097626;28;20067;-60
2022/11/25 04:30:08;;;;;;;9.63;5.70;;;;;;;-1.24;94.77;96060.81;2097859;28;20052;-60
2022/11/25 04:31:12;;;;;;;12.68;6.53;;;;;;;-1.19;94.34;96058.28;2090640;28;20041;-58
2022/11/25 04:32:16;;;;;;;10.98;6.25;;;;;;;-1.18;94.66;96050.63;2089822;28;20052;-57
2022/11/25 04:33:17;;;;;;;12.13;6.07;;;;;;;-1.20;95.06;96042.16;2089336;28;20053;-58
2022/11/25 04:34:19;;;;;;;11.90;6.78;;;;;;;-1.18;94.50;96042.13;2090187;28;20404;-57
2022/11/25 04:35:23;;;;;;;11.15;6.82;;;;;;;-1.16;94.73;96045.53;2089800;28;20049;-57
2022/11/25 04:36:27;;;;;;;12.60;6.28;;;;;;;-1.15;94.52;96039.56;2098514;28;20082;-59
2022/11/25 04:37:29;;;;;;;10.43;5.50;;;;;;;-1.13;94.63;96045.53;2098705;28;20391;-58
2022/11/25 04:38:32;;;;;;;9.70;5.95;;;;;;;-1.12;94.54;96047.25;2089552;28;20045;-59
2022/11/25 04:39:33;;;;;;;14.98;7.15;;;;;;;-1.12;95.09;96048.09;2090100;28;20045;-58
2022/11/25 04:40:41;;;;;;;8.98;6.15;;;;;;;-1.11;95.23;96049.78;2090411;28;20496;-59
2022/11/25 04:41:48;;;;;;;10.82;6.22;;;;;;;-1.09;95.05;96043.84;2082688;28;20129;-53
2022/11/25 04:42:49;;;;;;;11.57;7.00;;;;;;;-1.05;94.43;96048.06;2090930;28;20040;-54
2022/11/25 04:43:53;;;;;;;18.00;6.50;;;;;;;-1.17;94.72;96029.41;2097517;28;20051;-54
2022/11/25 04:44:55;;;;;;;11.75;6.53;;;;;;;-1.08;95.10;96042.97;2089456;28;20045;-52
2022/11/25 04:45:57;;;;;;;11.70;6.93;;;;;;;-1.03;94.93;96051.47;2089573;28;20477;-53
2022/11/25 04:46:58;;;;;;;12.95;7.03;;;;;;;-1.09;94.39;96052.31;2089269;28;20040;-60
2022/11/25 04:47:59;;;;;;;11.55;6.20;;;;;;;-1.03;94.92;96048.91;2098014;28;20044;-60
2022/11/25 04:49:01;;;;;;;12.32;6.53;;;;;;;-1.01;95.24;96057.44;2098284;28;20067;-59
2022/11/25 04:50:03;;;;;;;11.27;6.60;;;;;;;-1.01;95.31;96052.31;2089961;28;20044;-60
2022/11/25 04:51:05;;;;;;;11.82;7.07;;;;;;;-0.99;95.64;96058.25;2090241;28;20047;-60
2022/11/25 04:52:06;;;;;;;10.32;6.60;;;;;;;-0.97;94.88;96059.09;2089208;28;20500;-62
2022/11/25 04:53:08;;;;;;;15.60;6.78;;;;;;;-0.95;94.88;96067.59;2089777;28;20041;-61
2022/11/25 04:54:09;;;;;;;12.45;6.57;;;;;;;-0.97;94.83;96054.00;2089320;28;20116;-61
2022/11/25 04:55:11;;;;;;;14.70;7.05;;;;;;;-0.99;94.83;96051.47;2089082;28;20049;-61
2022/11/25 04:56:16;;;;;;;10.55;5.95;;;;;;;-0.93;94.48;96063.34;2089379;28;20049;-62
2022/11/25 04:57:19;;;;;;;15.10;6.43;;;;;;;-0.89;94.61;96060.78;2090143;28;20040;-61
2022/11/25 04:59:38;;;;;;;12.50;6.60;;;;;;;-0.91;95.50;96051.44;2089394;28;20068;-62
2022/11/25 04:59:42;;;;;;;10.65;6.82;;;;;;;-0.86;95.26;96056.53;2092145;28;20063;-61